Moundsville, WV (26041)

7:26 PM EST on December 24, 2014 (GMT -0500)
Lynn Acres | Change Station
CLOSE
Current Station
Personal Weather Station
Location: Moundsville, WV
Elevation: 1316 ft
Nearby Weather Stations

Elev 1316 ft 39.94 °N, 80.69 °W | Updated 7 minutes ago

Overcast
Overcast
61.2 °F
Feels Like 61.2 °F
N
7.8
Wind Variable Wind from SSW

Today
High -- | Low -- °F
--% Chance of Precip.
Yesterday
High -- | Low -- °F
Precip. -- in
7:42 AM 5:02 PM
Waxing Crescent, 12% visible
Pressure 29.34 in
Visibility 10.0 miles
Clouds Few 5000 ft
Dew Point 52 °F
Humidity 73%
Rainfall 0.05 in
Snow Depth Not available.
UV 0 out of 12
Pollen .10 out of 12
Air Quality Not available.
Flu Activity Not available.
METAR KHLG 242353Z 16013G19KT 10SM FEW050 16/10 A2934 RMK AO2 SLP934 60000 T01610100 10167 20144 58032

More Conditions Fewer Conditions

Pressure 29.34 in
Visibility 10.0 miles
Clouds Few 5000 ft
Dew Point 52 °F
Humidity 73%
Rainfall 0.05 in
Snow Depth Not available.
UV 0 out of 12
Pollen .10 out of 12
Air Quality Not available.
Flu Activity Not available.
METAR KHLG 242353Z 16013G19KT 10SM FEW050 16/10 A2934 RMK AO2 SLP934 60000 T01610100 10167 20144 58032

More Conditions Fewer Conditions

10-Day Weather Forecast

Almanac

Astronomy

Dec. 24, 2014 Rise Set
Actual Time
Civil Twilight
Nautical Twilight
Astronomical Twilight
Moon
Length of Visible Light
Length of Day
Tomorrow will be .
, % of the Moon is Illuminated

Today's Extremes

State Highs State Lows

Community

WunderPhotos

Upload Photos

1,780,192 photos uploaded!

WunderBlogs® & News

Nearby

Air Quality

  Air Quality AQ Index Pollutant
Not available.

Snow Depth

Station Depth Elevation

Earthquake Activity

City Distance Mag. Time & Date
Minimum magnitude displayed is 2.5.

Coastal Water Temperatures

Place Temperature

Nearby Weather Stations